Time;durP1;ratioP1;P1;durP2;ratioP2;P2;SDS_P1;SDS_P2;PMS_P1;PMS_P2;Temp;Humidity;BMP_temperature;BMP_pressure;BME280_temperature;BME280_humidity;BME280_pressure;Samples;Min_cycle;Max_cycle;Signal;HPM_P1;HPM_P2
2023/07/25 00:01:54;;;;;;;4.17;3.90;;;;;;;15.22;100.00;96052.34;4936557;28;20210;-66
2023/07/25 00:04:22;;;;;;;3.90;3.70;;;;;;;15.17;100.00;96053.06;4997755;28;20699;-69
2023/07/25 00:06:50;;;;;;;4.20;3.80;;;;;;;15.14;100.00;96050.88;4991320;28;20236;-67
2023/07/25 00:09:17;;;;;;;3.97;3.73;;;;;;;15.11;100.00;96046.03;4997703;28;20193;-69
2023/07/25 00:11:46;;;;;;;4.33;4.00;;;;;;;15.07;100.00;96034.22;4983337;28;20331;-68
2023/07/25 00:14:14;;;;;;;4.37;3.97;;;;;;;15.05;100.00;96029.13;4997344;28;20255;-67
2023/07/25 00:16:42;;;;;;;3.50;3.20;;;;;;;15.06;100.00;96028.06;4994607;28;20260;-68
2023/07/25 00:19:09;;;;;;;4.40;4.00;;;;;;;15.01;100.00;96031.47;4998654;28;20207;-68
2023/07/25 00:21:37;;;;;;;4.47;4.10;;;;;;;15.03;100.00;96033.91;4949403;28;20295;-67
2023/07/25 00:24:05;;;;;;;3.57;3.30;;;;;;;15.02;100.00;96033.09;4997177;28;20201;-65
2023/07/25 00:26:32;;;;;;;3.97;3.60;;;;;;;15.00;100.00;96035.19;4991422;28;20237;-67
2023/07/25 00:29:01;;;;;;;4.00;3.70;;;;;;;14.93;100.00;96013.19;4996371;28;20213;-68
2023/07/25 00:31:29;;;;;;;4.60;3.90;;;;;;;14.94;100.00;96012.13;4922164;28;20623;-66
2023/07/25 00:33:57;;;;;;;3.87;3.57;;;;;;;15.02;100.00;96021.59;4996028;28;20228;-68
2023/07/25 00:36:25;;;;;;;4.30;3.90;;;;;;;15.00;100.00;96015.72;4994139;28;20233;-68
2023/07/25 00:38:52;;;;;;;4.30;3.73;;;;;;;14.99;100.00;96014.09;4996868;28;20217;-68
2023/07/25 00:41:20;;;;;;;4.00;3.70;;;;;;;14.97;100.00;96030.34;4990971;28;20615;-70
2023/07/25 00:43:48;;;;;;;3.70;3.43;;;;;;;14.94;100.00;96032.66;4996548;28;20240;-67
2023/07/25 00:46:17;;;;;;;3.87;3.40;;;;;;;14.95;100.00;96036.97;4993775;28;20228;-69
2023/07/25 00:48:44;;;;;;;4.20;3.90;;;;;;;14.93;100.00;96029.19;4991801;28;20198;-67
2023/07/25 00:51:12;;;;;;;4.03;3.73;;;;;;;14.90;100.00;96040.34;4946369;28;20220;-70
2023/07/25 00:53:40;;;;;;;3.80;3.43;;;;;;;14.89;100.00;96038.72;5000236;28;20263;-67
2023/07/25 00:56:08;;;;;;;3.60;3.40;;;;;;;14.85;100.00;96043.72;4994295;28;20236;-67
2023/07/25 00:58:36;;;;;;;3.73;3.23;;;;;;;14.82;100.00;96049.53;4997228;28;20913;-68
2023/07/25 01:01:04;;;;;;;4.20;3.90;;;;;;;14.81;100.00;96042.59;4989963;28;20295;-68
2023/07/25 01:03:38;;;;;;;4.23;3.93;;;;;;;14.80;100.00;96040.97;4996034;28;20339;-68
2023/07/25 01:06:09;;;;;;;4.10;3.70;;;;;;;14.76;100.00;96045.16;4911298;28;20229;-65
2023/07/25 01:08:47;;;;;;;4.03;3.73;;;;;;;14.77;100.00;96033.44;4998741;28;20200;-68
2023/07/25 01:11:15;;;;;;;3.80;3.60;;;;;;;14.82;100.00;96038.88;4994553;28;20209;-72
2023/07/25 01:13:43;;;;;;;3.93;3.50;;;;;;;14.78;100.00;96032.41;4997100;28;20229;-69
2023/07/25 01:16:11;;;;;;;4.67;4.37;;;;;;;14.81;100.00;96047.09;4991041;28;20252;-67
2023/07/25 01:18:41;;;;;;;4.57;4.17;;;;;;;14.81;100.00;96041.78;4996425;28;20222;-69
2023/07/25 01:21:09;;;;;;;4.27;3.97;;;;;;;14.80;100.00;96022.31;4947623;28;20214;-68
2023/07/25 01:23:37;;;;;;;3.70;3.50;;;;;;;14.85;100.00;96016.25;4997160;28;20283;-69
2023/07/25 01:26:06;;;;;;;4.17;3.77;;;;;;;14.81;100.00;96020.44;4994077;28;20299;-68
2023/07/25 01:28:34;;;;;;;3.77;3.47;;;;;;;14.82;100.00;96016.72;4996452;28;20915;-68
2023/07/25 01:31:01;;;;;;;4.23;3.70;;;;;;;14.80;100.00;96014.31;4993315;28;20287;-69
2023/07/25 01:33:29;;;;;;;3.47;3.27;;;;;;;14.80;100.00;96010.81;4996917;28;20189;-69
2023/07/25 01:35:57;;;;;;;3.73;3.43;;;;;;;14.78;100.00;96008.41;4910034;28;20299;-69
2023/07/25 01:38:24;;;;;;;3.53;3.33;;;;;;;14.78;100.00;96016.41;4989788;28;20252;-68
2023/07/25 01:40:52;;;;;;;4.27;3.87;;;;;;;14.74;100.00;96010.75;4989539;28;20232;-70
2023/07/25 01:43:21;;;;;;;3.70;3.47;;;;;;;14.70;100.00;95984.75;4991685;28;20271;-68
2023/07/25 01:45:48;;;;;;;3.97;3.67;;;;;;;14.70;100.00;95985.63;4992156;28;20308;-68
2023/07/25 01:48:16;;;;;;;4.40;3.40;;;;;;;14.72;100.00;95996.03;4994978;28;20201;-69
2023/07/25 01:50:44;;;;;;;3.90;3.50;;;;;;;14.71;100.00;95983.75;4950128;28;20295;-68
2023/07/25 01:53:11;;;;;;;4.53;3.97;;;;;;;14.67;100.00;95994.06;4995320;28;20209;-67
2023/07/25 01:55:39;;;;;;;4.30;3.53;;;;;;;14.70;100.00;95987.41;4989354;28;20253;-67
2023/07/25 01:58:06;;;;;;;3.47;3.27;;;;;;;14.66;100.00;95984.44;4993322;28;20287;-68
2023/07/25 02:00:35;;;;;;;3.13;2.93;;;;;;;14.65;100.00;95974.84;4992646;28;20739;-66
2023/07/25 02:03:03;;;;;;;4.07;3.50;;;;;;;14.61;100.00;95979.03;4996219;28;20210;-68
2023/07/25 02:05:31;;;;;;;4.20;3.40;;;;;;;14.59;100.00;95971.25;4990204;28;20227;-67
2023/07/25 02:07:58;;;;;;;4.20;3.90;;;;;;;14.59;100.00;95957.13;4992754;28;20734;-66
2023/07/25 02:10:27;;;;;;;3.93;3.63;;;;;;;14.58;100.00;95974.97;4916831;28;20517;-67
2023/07/25 02:12:56;;;;;;;3.83;3.53;;;;;;;14.56;100.00;95978.91;4932892;28;20225;-66
2023/07/25 02:15:23;;;;;;;3.93;3.60;;;;;;;14.56;100.00;95973.56;4997403;28;20221;-67
2023/07/25 02:17:53;;;;;;;4.10;3.77;;;;;;;14.54;100.00;95971.16;4994183;28;20260;-67
2023/07/25 02:20:22;;;;;;;3.97;3.67;;;;;;;14.53;100.00;95976.72;4989857;28;20211;-66
2023/07/25 02:22:49;;;;;;;4.00;3.73;;;;;;;14.51;100.00;95986.81;4949832;28;20236;-67
2023/07/25 02:25:17;;;;;;;3.80;3.47;;;;;;;14.32;100.00;95985.16;4993743;28;20248;-68
2023/07/25 02:27:44;;;;;;;3.90;3.37;;;;;;;14.50;100.00;95988.69;4932330;28;20219;-67
2023/07/25 02:30:12;;;;;;;4.00;3.60;;;;;;;14.52;100.00;95983.09;4995870;28;20240;-68
2023/07/25 02:32:40;;;;;;;4.07;3.77;;;;;;;14.52;100.00;95991.91;4992927;28;20232;-67
2023/07/25 02:35:09;;;;;;;4.03;3.70;;;;;;;14.48;100.00;95990.78;4995806;28;20220;-66
2023/07/25 02:37:36;;;;;;;4.10;3.77;;;;;;;14.43;100.00;95969.38;4991115;28;20303;-69
2023/07/25 02:40:05;;;;;;;3.83;3.60;;;;;;;14.40;100.00;95962.66;4996877;28;20232;-68
2023/07/25 02:42:33;;;;;;;3.73;3.40;;;;;;;14.39;100.00;95963.69;4907131;28;21298;-68
2023/07/25 02:45:01;;;;;;;4.10;3.80;;;;;;;14.40;100.00;95957.31;4995011;28;20221;-69
2023/07/25 02:47:28;;;;;;;4.30;4.00;;;;;;;14.34;100.00;95960.94;4990608;28;20244;-66
2023/07/25 02:49:56;;;;;;;3.93;3.70;;;;;;;14.33;100.00;95946.00;4996712;28;20216;-67
2023/07/25 02:52:25;;;;;;;4.13;3.77;;;;;;;14.34;100.00;95947.63;4991384;28;20202;-69
2023/07/25 02:54:53;;;;;;;3.70;3.37;;;;;;;14.32;100.00;95939.84;4994453;28;20622;-68
2023/07/25 02:57:20;;;;;;;3.80;3.57;;;;;;;14.31;100.00;95935.56;4942192;28;20819;-70
2023/07/25 02:59:48;;;;;;;4.67;3.70;;;;;;;14.19;100.00;95893.00;5004007;28;20295;-67
2023/07/25 03:02:15;;;;;;;5.97;3.60;;;;;;;14.33;100.00;95924.69;4998963;28;20860;-69
2023/07/25 03:04:43;;;;;;;4.50;4.10;;;;;;;14.27;100.00;95923.00;5002139;28;20209;-67
2023/07/25 03:07:11;;;;;;;3.73;3.47;;;;;;;14.29;100.00;95918.22;4987817;28;20305;-68
2023/07/25 03:09:41;;;;;;;6.30;5.80;;;;;;;14.29;100.00;95908.38;4996165;28;20193;-69
2023/07/25 03:12:09;;;;;;;4.07;3.73;;;;;;;14.24;100.00;95899.50;4924081;28;20220;-67
2023/07/25 03:14:37;;;;;;;3.97;3.47;;;;;;;14.25;100.00;95893.91;4985438;28;20303;-69
2023/07/25 03:17:04;;;;;;;4.40;4.00;;;;;;;14.25;100.00;95907.22;4994653;28;20204;-70
2023/07/25 03:19:32;;;;;;;3.73;3.43;;;;;;;14.22;100.00;95915.69;4991459;28;20630;-68
2023/07/25 03:22:00;;;;;;;3.60;3.40;;;;;;;14.21;100.00;95911.41;4995322;28;20216;-69
2023/07/25 03:24:27;;;;;;;3.70;3.47;;;;;;;14.17;100.00;95912.94;4991027;28;20291;-70
2023/07/25 03:26:56;;;;;;;4.73;4.10;;;;;;;14.17;100.00;95916.41;4992379;28;20221;-70
2023/07/25 03:29:24;;;;;;;4.23;3.93;;;;;;;14.18;100.00;95904.69;4992025;28;20236;-70
2023/07/25 03:31:52;;;;;;;4.10;3.80;;;;;;;14.15;100.00;95907.03;4940103;28;21764;-69
2023/07/25 03:34:19;;;;;;;3.90;3.70;;;;;;;14.11;100.00;95904.03;4990460;28;20613;-71
2023/07/25 03:36:47;;;;;;;4.17;3.90;;;;;;;14.06;100.00;95898.63;4990053;28;20241;-68
2023/07/25 03:39:15;;;;;;;3.87;3.40;;;;;;;13.99;100.00;95895.28;4994865;28;20228;-70
2023/07/25 03:41:42;;;;;;;3.93;3.63;;;;;;;13.96;100.00;95907.22;4990058;28;20193;-69
2023/07/25 03:44:16;;;;;;;4.13;3.80;;;;;;;13.96;100.00;95917.06;4997526;28;20292;-69
2023/07/25 03:46:45;;;;;;;4.20;3.77;;;;;;;13.95;100.00;95908.25;4924320;28;20239;-68
2023/07/25 03:49:13;;;;;;;4.20;3.87;;;;;;;13.87;100.00;95912.13;4997852;28;20197;-69
2023/07/25 03:51:41;;;;;;;4.13;3.83;;;;;;;13.93;100.00;95915.69;4993154;28;20201;-70
2023/07/25 03:56:47;;;;;;;4.23;3.93;;;;;;;13.95;100.00;95910.13;4899989;28;20227;-64
2023/07/25 03:59:16;;;;;;;4.70;4.40;;;;;;;13.93;100.00;95904.25;4927864;28;20223;-64
2023/07/25 04:01:44;;;;;;;3.30;3.10;;;;;;;13.99;100.00;95914.72;4944072;28;20211;-64
2023/07/25 04:04:12;;;;;;;3.33;3.13;;;;;;;13.96;100.00;95909.09;4903159;28;20210;-63
2023/07/25 04:06:40;;;;;;;3.73;3.43;;;;;;;14.03;100.00;95907.09;4959053;28;20214;-63
2023/07/25 04:09:07;;;;;;;3.90;3.70;;;;;;;14.10;100.00;95920.28;4958464;28;20258;-63
2023/07/25 04:11:35;;;;;;;3.33;3.13;;;;;;;14.11;100.00;95924.56;4955453;28;20310;-64
2023/07/25 04:14:03;;;;;;;4.20;3.77;;;;;;;14.15;100.00;95923.81;4913538;28;20230;-63
2023/07/25 04:16:32;;;;;;;3.73;3.53;;;;;;;14.15;100.00;95915.03;4961359;28;20629;-64
2023/07/25 04:19:00;;;;;;;3.53;3.33;;;;;;;14.22;100.00;95918.38;4888767;28;20685;-65
2023/07/25 04:21:27;;;;;;;4.10;3.80;;;;;;;14.22;100.00;95921.03;4959170;28;20224;-63
2023/07/25 04:23:55;;;;;;;3.67;3.37;;;;;;;14.20;100.00;95920.47;4949857;28;20237;-62
2023/07/25 04:26:23;;;;;;;3.60;3.30;;;;;;;14.16;100.00;95914.78;5005353;23;20331;-68
2023/07/25 04:28:50;;;;;;;4.37;3.60;;;;;;;14.11;100.00;95933.34;5004997;28;20312;-69
2023/07/25 04:31:18;;;;;;;3.63;3.40;;;;;;;14.19;100.00;95946.28;5013100;28;20925;-67
2023/07/25 04:33:47;;;;;;;3.73;3.43;;;;;;;14.28;100.00;95943.25;5021341;28;20204;-66
2023/07/25 04:36:15;;;;;;;3.63;3.20;;;;;;;14.31;100.00;95940.09;4965839;28;20603;-67
2023/07/25 04:38:42;;;;;;;3.97;3.53;;;;;;;14.42;100.00;95947.22;5001703;28;20212;-68
2023/07/25 04:41:11;;;;;;;3.67;3.37;;;;;;;14.39;100.00;95946.88;4998759;28;20271;-68
2023/07/25 04:43:39;;;;;;;3.67;3.30;;;;;;;14.40;100.00;95961.84;5003060;28;20307;-66
2023/07/25 04:46:06;;;;;;;4.10;3.90;;;;;;;14.41;100.00;95953.59;4997301;28;20232;-66
2023/07/25 04:48:34;;;;;;;4.53;3.87;;;;;;;14.40;100.00;95953.88;5003867;28;20208;-68
2023/07/25 04:51:03;;;;;;;4.03;3.63;;;;;;;14.41;100.00;95963.47;4922997;28;21445;-67
2023/07/25 04:53:31;;;;;;;3.83;3.37;;;;;;;14.45;100.00;95959.28;5001776;28;20754;-67
2023/07/25 04:55:58;;;;;;;5.27;3.90;;;;;;;14.50;100.00;95953.22;5000956;28;22054;-67
2023/07/25 04:58:26;;;;;;;4.37;4.07;;;;;;;14.50;100.00;95953.22;5001687;28;20300;-67
2023/07/25 05:00:53;;;;;;;4.00;3.70;;;;;;;14.56;100.00;95944.25;4999536;28;20311;-67
2023/07/25 05:03:21;;;;;;;4.40;4.00;;;;;;;14.53;100.00;95939.41;5004012;28;20293;-67
2023/07/25 05:05:52;;;;;;;4.10;3.70;;;;;;;14.62;100.00;95940.66;4959971;28;20276;-66
2023/07/25 05:08:21;;;;;;;4.20;3.90;;;;;;;14.61;100.00;95941.72;5005299;28;20225;-67
2023/07/25 05:10:51;;;;;;;3.93;3.63;;;;;;;14.74;100.00;95935.28;4996096;28;20197;-68
2023/07/25 05:13:19;;;;;;;3.50;3.20;;;;;;;14.82;100.00;95947.41;5004969;28;20217;-67
2023/07/25 05:15:47;;;;;;;4.20;3.80;;;;;;;14.83;100.00;95933.84;4995992;28;20229;-69
2023/07/25 05:18:14;;;;;;;6.50;4.17;;;;;;;14.96;100.00;95935.34;5010485;28;20241;-67
2023/07/25 05:20:42;;;;;;;4.73;4.33;;;;;;;15.00;100.00;95925.03;5000755;28;20320;-68
2023/07/25 05:23:10;;;;;;;4.47;4.13;;;;;;;15.09;100.00;95918.22;5006010;28;20677;-67
2023/07/25 05:25:39;;;;;;;3.67;3.40;;;;;;;14.83;100.00;95869.03;4941561;28;20997;-67
2023/07/25 05:28:07;;;;;;;3.63;3.27;;;;;;;15.16;100.00;95889.53;4988762;28;20213;-67
2023/07/25 05:30:34;;;;;;;3.83;3.53;;;;;;;15.34;100.00;95912.47;5007992;28;20292;-68
2023/07/25 05:33:03;;;;;;;4.20;3.90;;;;;;;15.37;100.00;95903.16;5003335;28;20231;-68
2023/07/25 05:35:30;;;;;;;4.50;4.10;;;;;;;15.31;100.00;95917.47;4952348;28;20259;-68
2023/07/25 05:37:58;;;;;;;3.93;3.57;;;;;;;15.44;100.00;95911.00;5006003;28;20205;-67
2023/07/25 05:40:26;;;;;;;4.20;3.90;;;;;;;15.52;100.00;95913.22;4957789;28;21037;-67
2023/07/25 05:42:55;;;;;;;3.80;3.50;;;;;;;15.69;100.00;95909.69;5000928;28;20259;-67
2023/07/25 05:45:22;;;;;;;3.60;3.40;;;;;;;15.76;100.00;95903.13;4997781;28;20291;-68
2023/07/25 05:47:50;;;;;;;4.63;3.27;;;;;;;15.93;100.00;95904.97;5006324;28;20208;-68
2023/07/25 05:50:18;;;;;;;3.33;3.13;;;;;;;16.06;100.00;95904.56;5000354;28;20213;-66
2023/07/25 05:52:46;;;;;;;4.23;3.93;;;;;;;16.10;100.00;95890.69;5004822;28;20205;-68
2023/07/25 05:55:13;;;;;;;3.47;3.17;;;;;;;15.94;100.00;95879.03;5000294;28;20244;-68
2023/07/25 05:57:41;;;;;;;3.53;3.33;;;;;;;16.19;100.00;95873.16;5004546;28;20209;-68
2023/07/25 06:00:11;;;;;;;3.83;3.63;;;;;;;16.26;100.00;95870.28;4919629;28;20752;-68
2023/07/25 06:02:39;;;;;;;3.63;3.40;;;;;;;16.30;100.00;95874.06;5004706;28;20643;-68
2023/07/25 06:05:07;;;;;;;3.47;3.17;;;;;;;16.54;100.00;95868.41;4998966;28;20319;-68
2023/07/25 06:07:35;;;;;;;4.03;3.73;;;;;;;16.79;100.00;95878.50;5005164;28;20287;-68
2023/07/25 06:10:02;;;;;;;3.87;3.57;;;;;;;17.05;100.00;95858.13;4955196;28;20213;-68
2023/07/25 06:12:30;;;;;;;4.10;3.87;;;;;;;17.12;100.00;95865.94;5006350;28;20200;-67
2023/07/25 06:14:58;;;;;;;4.23;3.47;;;;;;;17.25;100.00;95858.50;5000934;28;20208;-68
2023/07/25 06:17:27;;;;;;;3.57;3.37;;;;;;;17.28;100.00;95855.28;5003955;28;20217;-68
2023/07/25 06:19:54;;;;;;;3.00;2.80;;;;;;;17.45;100.00;95849.75;4997196;28;20201;-67
2023/07/25 06:22:22;;;;;;;3.20;2.90;;;;;;;17.36;100.00;95844.91;5007098;28;20212;-67
2023/07/25 06:24:49;;;;;;;6.40;4.07;;;;;;;17.42;100.00;95837.69;4999344;28;20871;-68
2023/07/25 06:27:17;;;;;;;3.77;3.47;;;;;;;17.21;100.00;95839.47;5003551;28;20723;-68
2023/07/25 06:29:45;;;;;;;3.97;3.50;;;;;;;17.56;100.00;95840.69;5002663;28;20219;-68
2023/07/25 06:32:12;;;;;;;3.30;3.10;;;;;;;17.55;100.00;95833.72;5002621;28;20193;-68
2023/07/25 06:34:42;;;;;;;4.03;3.73;;;;;;;17.67;100.00;95833.50;4941471;28;21253;-67
2023/07/25 06:37:10;;;;;;;7.03;5.77;;;;;;;17.74;100.00;95819.88;4984530;28;20291;-67
2023/07/25 06:39:37;;;;;;;6.03;5.53;;;;;;;17.68;100.00;95808.34;4999448;28;20197;-68
2023/07/25 06:42:05;;;;;;;6.80;6.20;;;;;;;17.87;100.00;95813.22;5003905;28;20304;-67
2023/07/25 06:44:33;;;;;;;7.20;6.50;;;;;;;18.06;100.00;95794.81;4979984;28;20201;-68
2023/07/25 06:47:01;;;;;;;6.70;6.10;;;;;;;18.06;100.00;95782.19;4981854;28;20233;-68
2023/07/25 06:49:28;;;;;;;5.57;5.07;;;;;;;18.31;100.00;95779.78;5004513;28;20291;-69
2023/07/25 06:51:57;;;;;;;5.50;5.00;;;;;;;18.21;100.00;95780.63;4999770;28;20227;-67
2023/07/25 06:54:25;;;;;;;4.83;4.43;;;;;;;18.23;100.00;95776.56;5003440;28;20248;-68
2023/07/25 06:56:52;;;;;;;6.20;5.67;;;;;;;18.48;100.00;95772.28;4998249;28;20699;-67
2023/07/25 06:59:20;;;;;;;6.67;6.07;;;;;;;18.14;100.00;95772.00;5000846;28;20209;-67
2023/07/25 07:01:48;;;;;;;7.00;6.30;;;;;;;18.34;100.00;95779.25;4999310;28;20400;-68
2023/07/25 07:04:15;;;;;;;8.47;6.30;;;;;;;17.93;100.00;95783.47;5000484;28;20956;-68
2023/07/25 07:06:43;;;;;;;8.57;7.83;;;;;;;18.11;100.00;95785.94;5000183;28;20217;-68
2023/07/25 07:09:12;;;;;;;8.27;7.57;;;;;;;18.32;100.00;95755.41;4994063;28;20263;-68
2023/07/25 07:11:41;;;;;;;10.03;9.03;;;;;;;18.89;100.00;95789.41;4930100;28;20208;-68
2023/07/25 07:14:09;;;;;;;10.60;9.43;;;;;;;19.05;100.00;95804.41;5008331;28;20212;-68
2023/07/25 07:16:36;;;;;;;11.23;8.77;;;;;;;19.60;100.00;95794.81;4962000;28;20371;-67
2023/07/25 07:19:04;;;;;;;9.63;8.00;;;;;;;19.76;100.00;95782.13;5007620;28;20799;-67
2023/07/25 07:21:32;;;;;;;9.63;8.63;;;;;;;20.07;100.00;95785.44;4999991;28;20261;-67
2023/07/25 07:24:00;;;;;;;8.60;7.83;;;;;;;19.71;100.00;95784.84;5007444;28;20205;-67
2023/07/25 07:26:29;;;;;;;8.87;7.97;;;;;;;19.79;100.00;95785.06;5000414;28;20260;-66
2023/07/25 07:28:56;;;;;;;8.87;8.07;;;;;;;19.57;100.00;95792.69;5004809;28;20889;-68
2023/07/25 07:31:25;;;;;;;8.33;7.50;;;;;;;19.74;100.00;95793.16;5001301;28;20745;-67
2023/07/25 07:33:53;;;;;;;7.93;7.17;;;;;;;19.81;100.00;95801.72;5007676;28;20340;-66
2023/07/25 07:36:20;;;;;;;8.57;7.87;;;;;;;19.50;100.00;95801.88;4998823;28;20283;-67
2023/07/25 07:38:48;;;;;;;8.37;7.27;;;;;;;19.55;100.00;95794.84;5008272;28;20225;-67
2023/07/25 07:41:15;;;;;;;9.47;7.67;;;;;;;19.12;100.00;95803.31;5002519;28;20311;-68
2023/07/25 07:43:44;;;;;;;8.17;7.47;;;;;;;19.66;100.00;95812.53;5005742;28;20235;-67
2023/07/25 07:46:12;;;;;;;7.80;7.10;;;;;;;19.84;100.00;95804.94;4922142;28;20228;-67
2023/07/25 07:48:43;;;;;;;7.63;6.93;;;;;;;19.77;100.00;95797.16;5009492;28;20675;-69
2023/07/25 07:51:10;;;;;;;7.00;6.40;;;;;;;19.93;100.00;95797.91;4961115;28;20209;-66
2023/07/25 07:53:38;;;;;;;8.20;7.50;;;;;;;20.37;100.00;95794.38;5006955;28;20208;-68
2023/07/25 07:56:07;;;;;;;8.00;7.30;;;;;;;20.30;100.00;95803.88;5002891;28;20307;-66
2023/07/25 07:58:34;;;;;;;9.63;8.73;;;;;;;20.37;100.00;95798.97;5008424;28;20857;-67
2023/07/25 08:01:04;;;;;;;9.20;8.20;;;;;;;20.71;100.00;95795.47;5001097;28;20319;-66
2023/07/25 08:03:31;;;;;;;10.13;9.23;;;;;;;20.71;100.00;95803.53;5008374;28;20255;-68
2023/07/25 08:05:59;;;;;;;9.67;8.67;;;;;;;20.81;100.00;95808.84;4998248;28;20738;-68
2023/07/25 08:08:27;;;;;;;9.80;9.00;;;;;;;21.19;100.00;95802.00;5007376;28;20201;-69
2023/07/25 08:10:54;;;;;;;10.57;9.67;;;;;;;20.84;100.00;95812.88;4998945;28;20212;-67
2023/07/25 08:13:22;;;;;;;9.53;8.70;;;;;;;20.67;100.00;95805.97;5003762;28;20256;-68
2023/07/25 08:15:49;;;;;;;10.00;9.00;;;;;;;21.01;100.00;95807.03;4998400;28;20314;-68
2023/07/25 08:18:18;;;;;;;13.10;8.77;;;;;;;20.68;100.00;95809.47;5007458;28;20206;-68
2023/07/25 08:20:46;;;;;;;10.80;9.70;;;;;;;20.86;100.00;95810.69;4920857;28;20515;-68
2023/07/25 08:23:14;;;;;;;9.83;9.00;;;;;;;20.96;100.00;95809.75;5005512;28;20248;-67
2023/07/25 08:25:42;;;;;;;9.87;8.87;;;;;;;21.04;100.00;95806.47;4958394;28;20378;-68
2023/07/25 08:28:09;;;;;;;9.63;8.70;;;;;;;21.44;100.00;95806.28;5004985;28;20263;-67
2023/07/25 08:30:37;;;;;;;10.60;9.47;;;;;;;20.93;100.00;95804.94;5002894;28;20220;-67
2023/07/25 08:33:05;;;;;;;10.33;9.30;;;;;;;20.94;100.00;95795.78;5007919;28;20252;-67
2023/07/25 08:35:34;;;;;;;9.07;8.17;;;;;;;21.36;100.00;95790.78;4997358;28;20221;-67
2023/07/25 08:38:01;;;;;;;10.00;9.10;;;;;;;21.32;100.00;95784.34;4999378;28;20267;-67
2023/07/25 08:40:29;;;;;;;12.00;10.87;;;;;;;21.45;100.00;95789.03;4972186;28;21754;-64
2023/07/25 08:43:02;;;;;;;12.13;10.47;;;;;;;21.09;100.00;95776.81;4983758;28;20227;-68
2023/07/25 08:45:30;;;;;;;12.87;11.57;;;;;;;21.34;100.00;95766.00;5003646;28;20212;-68
2023/07/25 08:48:04;;;;;;;12.33;11.07;;;;;;;21.27;100.00;95770.94;5005163;28;20284;-67
2023/07/25 08:50:34;;;;;;;11.20;10.20;;;;;;;21.34;100.00;95782.97;4956288;28;20917;-67
2023/07/25 08:53:04;;;;;;;9.27;8.47;;;;;;;21.17;100.00;95778.03;4975425;28;20201;-68
2023/07/25 08:55:32;;;;;;;10.00;9.17;;;;;;;21.22;100.00;95785.28;4980617;28;22052;-68
2023/07/25 08:57:59;;;;;;;9.67;8.97;;;;;;;21.20;100.00;95782.84;4987157;28;20213;-67
2023/07/25 09:00:28;;;;;;;9.20;8.50;;;;;;;21.04;100.00;95778.72;5004055;28;20291;-68
2023/07/25 09:02:56;;;;;;;9.10;8.27;;;;;;;21.20;100.00;95782.84;5001643;28;20305;-68
2023/07/25 09:05:24;;;;;;;8.57;7.97;;;;;;;20.94;100.00;95772.38;5004180;28;20229;-68
2023/07/25 09:07:58;;;;;;;7.97;7.37;;;;;;;21.06;100.00;95771.16;5002441;28;20236;-68
2023/07/25 09:10:27;;;;;;;7.23;6.53;;;;;;;21.33;100.00;95775.19;5003028;28;20217;-67
2023/07/25 09:12:55;;;;;;;7.50;6.87;;;;;;;21.22;100.00;95771.81;4999794;28;20225;-68
2023/07/25 09:15:22;;;;;;;7.03;6.50;;;;;;;20.91;100.00;95774.81;4998364;28;20232;-66
2023/07/25 09:17:53;;;;;;;7.53;7.03;;;;;;;20.72;100.00;95778.22;5002173;28;20479;-66
2023/07/25 09:20:21;;;;;;;7.93;7.37;;;;;;;20.81;100.00;95781.09;4970484;28;20308;-67
2023/07/25 09:22:49;;;;;;;9.37;8.63;;;;;;;20.38;100.00;95777.16;4957921;28;20224;-67
2023/07/25 09:25:18;;;;;;;8.60;7.77;;;;;;;19.98;100.00;95772.91;5005021;28;20287;-68
2023/07/25 09:27:46;;;;;;;6.60;6.07;;;;;;;19.80;100.00;95770.56;5001472;28;20220;-67
2023/07/25 09:30:15;;;;;;;7.00;6.43;;;;;;;19.81;100.00;95772.16;5003572;28;20205;-66
2023/07/25 09:32:47;;;;;;;6.33;5.83;;;;;;;19.73;100.00;95777.31;4969289;28;20201;-66
2023/07/25 09:35:15;;;;;;;5.57;5.13;;;;;;;19.44;100.00;95777.97;5003503;28;20287;-68
2023/07/25 09:37:42;;;;;;;6.03;5.57;;;;;;;19.13;100.00;95767.34;5000979;28;20197;-67
2023/07/25 09:40:11;;;;;;;6.13;5.53;;;;;;;18.99;100.00;95780.56;5003117;28;20703;-68
2023/07/25 09:42:43;;;;;;;5.97;5.57;;;;;;;18.86;100.00;95771.97;4999524;28;20236;-67
2023/07/25 09:45:12;;;;;;;6.73;6.07;;;;;;;18.67;100.00;95777.09;5003186;28;20221;-67
2023/07/25 09:47:39;;;;;;;5.87;5.37;;;;;;;18.66;100.00;95795.06;5002829;28;20433;-67
2023/07/25 09:50:08;;;;;;;7.97;6.13;;;;;;;18.28;100.00;95812.50;5003718;28;20243;-67
2023/07/25 09:52:39;;;;;;;7.33;6.03;;;;;;;18.00;100.00;95826.09;5000377;28;20204;-67
2023/07/25 09:55:08;;;;;;;8.10;7.40;;;;;;;17.56;100.00;95816.59;4998788;28;20204;-67
2023/07/25 09:57:36;;;;;;;7.80;7.00;;;;;;;17.59;100.00;95826.00;4931397;28;20205;-66
2023/07/25 10:00:07;;;;;;;12.40;7.47;;;;;;;17.54;100.00;95821.41;4961098;28;21742;-66
2023/07/25 10:02:34;;;;;;;7.77;6.97;;;;;;;17.48;100.00;95803.72;4993506;28;20243;-67
2023/07/25 10:05:03;;;;;;;5.87;5.37;;;;;;;17.58;100.00;95801.06;4979202;28;20212;-67
2023/07/25 10:07:31;;;;;;;4.70;4.30;;;;;;;17.53;100.00;95814.44;4986824;28;20263;-67
2023/07/25 10:10:00;;;;;;;3.27;3.00;;;;;;;17.46;100.00;95787.13;4972284;28;20271;-67
2023/07/25 10:12:28;;;;;;;2.07;1.50;;;;;;;17.70;100.00;95792.81;4988719;28;20217;-67
2023/07/25 10:14:56;;;;;;;1.53;1.43;;;;;;;17.40;100.00;95759.50;5004824;28;20287;-68
2023/07/25 10:17:25;;;;;;;1.33;1.33;;;;;;;17.64;100.00;95805.41;5000440;28;20300;-67
2023/07/25 10:19:54;;;;;;;1.70;1.60;;;;;;;17.43;100.00;95803.69;5002152;28;20200;-67
2023/07/25 10:22:33;;;;;;;1.40;1.40;;;;;;;17.67;100.00;95798.69;5001954;28;20236;-67
2023/07/25 10:25:01;;;;;;;2.20;2.10;;;;;;;17.54;100.00;95805.34;4998822;28;20251;-67
2023/07/25 10:27:29;;;;;;;2.40;1.90;;;;;;;17.59;100.00;95800.00;5002354;28;20584;-67
2023/07/25 10:30:00;;;;;;;2.40;2.30;;;;;;;17.73;100.00;95797.63;4964180;28;21307;-67
2023/07/25 10:32:46;;;;;;;2.37;2.27;;;;;;;17.83;100.00;95804.09;4977975;28;20197;-69
2023/07/25 10:35:14;;;;;;;2.63;2.53;;;;;;;17.89;100.00;95806.53;4958492;28;21238;-67
2023/07/25 10:37:44;;;;;;;2.90;2.70;;;;;;;17.88;100.00;95809.47;5003419;28;20215;-67
2023/07/25 10:40:14;;;;;;;3.23;2.90;;;;;;;17.74;100.00;95799.25;4999055;28;20200;-68
2023/07/25 10:42:43;;;;;;;2.80;2.60;;;;;;;17.49;100.00;95816.84;5003012;28;20227;-67
2023/07/25 10:45:50;;;;;;;3.57;3.27;;;;;;;17.53;100.00;95824.38;4995396;28;20927;-67
2023/07/25 10:48:37;;;;;;;3.47;3.17;;;;;;;17.30;100.00;95813.00;5007677;28;20207;-68
2023/07/25 10:51:06;;;;;;;3.47;3.13;;;;;;;17.12;100.00;95806.22;5000025;28;20283;-67
2023/07/25 10:53:35;;;;;;;4.37;3.90;;;;;;;17.17;100.00;95809.75;5006976;28;20223;-68
2023/07/25 10:56:14;;;;;;;3.50;3.20;;;;;;;17.38;100.00;95806.38;5003873;28;20213;-67
2023/07/25 10:59:04;;;;;;;3.50;2.90;;;;;;;17.42;100.00;95810.91;5007170;28;20771;-67
2023/07/25 11:01:46;;;;;;;3.33;3.03;;;;;;;17.33;100.00;95815.16;4915164;28;20695;-67
2023/07/25 11:04:31;;;;;;;4.60;3.47;;;;;;;17.60;100.00;95819.56;5008480;28;20291;-67
2023/07/25 11:07:09;;;;;;;3.10;2.90;;;;;;;18.17;100.00;95820.53;5004281;28;20224;-67
2023/07/25 11:09:40;;;;;;;3.80;3.60;;;;;;;18.62;100.00;95814.66;5007168;28;20222;-68
2023/07/25 11:12:08;;;;;;;4.57;4.30;;;;;;;19.13;100.00;95815.66;4963218;28;20216;-66
2023/07/25 11:14:41;;;;;;;3.93;3.73;;;;;;;19.31;100.00;95807.03;5008569;28;20224;-67
2023/07/25 11:17:08;;;;;;;4.90;4.47;;;;;;;19.51;100.00;95803.47;5001710;28;20738;-68
2023/07/25 11:19:37;;;;;;;5.80;5.30;;;;;;;19.72;100.00;95811.44;5007692;28;20880;-67
2023/07/25 11:22:08;;;;;;;6.23;5.73;;;;;;;19.26;100.00;95787.44;5005011;28;21050;-67
2023/07/25 11:24:43;;;;;;;5.83;5.33;;;;;;;19.88;100.00;95809.44;5007469;28;20220;-67
2023/07/25 11:27:11;;;;;;;4.77;4.40;;;;;;;19.84;100.00;95807.63;4999610;28;20331;-68
2023/07/25 11:29:38;;;;;;;5.53;5.03;;;;;;;19.85;100.00;95804.63;5012116;28;20949;-67
2023/07/25 11:32:07;;;;;;;4.70;4.40;;;;;;;19.94;100.00;95804.91;4998634;28;20208;-67
2023/07/25 11:34:35;;;;;;;4.17;3.87;;;;;;;19.93;100.00;95809.47;4997655;28;20221;-62